createdAt,value
2022-11-28T00:01:22.762Z,2.73
2022-11-28T00:03:49.427Z,2.85
2022-11-28T00:06:16.506Z,2.78
2022-11-28T00:08:43.138Z,2.74
2022-11-28T00:11:12.015Z,2.79
2022-11-28T00:13:39.550Z,2.73
2022-11-28T00:16:08.642Z,2.81
2022-11-28T00:18:35.538Z,2.77
2022-11-28T00:21:06.872Z,2.79
2022-11-28T00:23:33.603Z,2.79
2022-11-28T00:26:06.227Z,2.70
2022-11-28T00:28:32.953Z,2.76
2022-11-28T00:30:59.467Z,2.65
2022-11-28T00:33:26.203Z,2.77
2022-11-28T00:35:59.205Z,2.71
2022-11-28T00:38:25.738Z,2.80
2022-11-28T00:41:14.129Z,2.71
2022-11-28T00:43:41.945Z,2.72
2022-11-28T00:46:09.538Z,2.68
2022-11-28T00:48:36.211Z,2.51
2022-11-28T00:51:07.041Z,2.67
2022-11-28T00:53:33.787Z,2.71
2022-11-28T00:56:00.384Z,2.79
2022-11-28T00:58:26.977Z,2.70
2022-11-28T01:00:53.513Z,2.80
2022-11-28T01:03:20.222Z,2.81
2022-11-28T01:05:46.727Z,2.66
2022-11-28T01:08:13.276Z,2.67
2022-11-28T01:10:42.306Z,2.65
2022-11-28T01:13:09.994Z,2.86
2022-11-28T01:15:39.454Z,2.83
2022-11-28T01:18:06.000Z,2.88
2022-11-28T01:20:32.739Z,2.87
2022-11-28T01:22:59.076Z,2.96
2022-11-28T01:25:25.674Z,2.76
2022-11-28T01:27:52.149Z,2.76
2022-11-28T01:30:18.718Z,2.74
2022-11-28T01:32:45.033Z,2.71
2022-11-28T01:35:11.641Z,2.71
2022-11-28T01:37:38.431Z,2.74
2022-11-28T01:40:05.732Z,2.78
2022-11-28T01:42:32.217Z,2.89
2022-11-28T01:45:05.715Z,2.80
2022-11-28T01:47:33.990Z,2.75
2022-11-28T01:50:00.934Z,2.59
2022-11-28T01:52:27.684Z,2.65
2022-11-28T01:54:58.976Z,2.80
2022-11-28T01:57:26.840Z,2.80
2022-11-28T02:00:15.386Z,2.93
2022-11-28T02:03:05.287Z,2.90
2022-11-28T02:05:31.653Z,2.82
2022-11-28T02:07:58.413Z,3.00
2022-11-28T02:10:29.003Z,2.90
2022-11-28T02:13:13.566Z,2.94
2022-11-28T02:15:49.025Z,2.94
2022-11-28T02:18:50.525Z,3.03
2022-11-28T02:21:38.815Z,2.96
2022-11-28T02:24:30.044Z,2.82
2022-11-28T02:27:11.626Z,2.80
2022-11-28T02:30:16.085Z,2.71
2022-11-28T02:33:22.386Z,2.88
2022-11-28T02:36:05.170Z,2.71
2022-11-28T02:38:47.921Z,2.80
2022-11-28T02:41:43.326Z,2.67
2022-11-28T02:44:24.901Z,2.71
2022-11-28T02:47:08.651Z,2.75
2022-11-28T02:49:47.393Z,2.69
2022-11-28T02:52:18.889Z,2.56
2022-11-28T02:54:46.553Z,2.61
2022-11-28T02:57:12.897Z,2.62
2022-11-28T02:59:39.328Z,2.70
2022-11-28T03:02:14.316Z,2.73
2022-11-28T03:04:53.832Z,2.79
2022-11-28T03:07:36.511Z,2.72
2022-11-28T03:10:35.683Z,2.78
2022-11-28T03:13:10.478Z,2.75
2022-11-28T03:16:01.686Z,2.73
2022-11-28T03:18:38.982Z,2.72
2022-11-28T03:21:08.090Z,2.57
2022-11-28T03:23:48.905Z,2.73
2022-11-28T03:26:25.037Z,2.73
2022-11-28T03:29:00.467Z,2.66
2022-11-28T03:31:49.368Z,2.70
2022-11-28T03:34:19.346Z,2.56
2022-11-28T03:36:52.183Z,2.60
2022-11-28T03:39:23.997Z,2.63
2022-11-28T03:42:09.721Z,2.51
2022-11-28T03:44:43.454Z,2.59
2022-11-28T03:47:10.388Z,2.49
2022-11-28T03:49:42.384Z,2.27
2022-11-28T03:52:16.198Z,2.35
2022-11-28T03:54:51.302Z,2.21
2022-11-28T03:57:46.420Z,2.36
2022-11-28T04:00:14.066Z,2.40
2022-11-28T04:03:00.274Z,2.33
2022-11-28T04:05:29.692Z,2.43
2022-11-28T04:08:01.547Z,2.28
2022-11-28T04:11:02.755Z,2.51
2022-11-28T04:13:50.470Z,2.58
2022-11-28T04:16:34.474Z,2.62
2022-11-28T04:19:19.589Z,2.54
2022-11-28T04:22:16.707Z,2.35
2022-11-28T04:24:49.086Z,2.30
2022-11-28T04:27:22.918Z,2.29
2022-11-28T04:29:56.215Z,2.49
2022-11-28T04:32:24.901Z,2.54
2022-11-28T04:34:57.437Z,2.46
2022-11-28T04:37:27.183Z,2.49
2022-11-28T04:39:56.428Z,2.51
2022-11-28T04:42:43.224Z,2.67
2022-11-28T04:45:28.087Z,2.46
2022-11-28T04:47:55.119Z,2.63
2022-11-28T04:50:25.438Z,2.51
2022-11-28T04:53:09.453Z,2.65
2022-11-28T04:55:52.925Z,2.58
2022-11-28T04:58:33.157Z,2.59
2022-11-28T05:01:01.618Z,2.55
2022-11-28T05:03:30.164Z,2.61
2022-11-28T05:05:56.850Z,2.57
2022-11-28T05:08:23.433Z,2.62
2022-11-28T05:10:50.299Z,2.64
2022-11-28T05:13:16.822Z,2.52
2022-11-28T05:15:43.237Z,2.62
2022-11-28T05:18:09.852Z,2.59
2022-11-28T05:20:38.014Z,2.63
2022-11-28T05:23:04.772Z,2.42
2022-11-28T05:25:31.434Z,2.43
2022-11-28T05:27:57.972Z,2.33
2022-11-28T05:30:24.545Z,2.33
2022-11-28T05:32:51.110Z,2.36
2022-11-28T05:35:17.750Z,2.28
2022-11-28T05:37:44.579Z,2.31
2022-11-28T05:40:11.357Z,2.40
2022-11-28T05:42:37.813Z,2.44
2022-11-28T05:45:04.768Z,2.33
2022-11-28T05:47:32.994Z,2.41
2022-11-28T05:49:59.745Z,2.45
2022-11-28T05:52:29.752Z,2.49
2022-11-28T05:54:56.140Z,2.56
2022-11-28T05:57:22.681Z,2.65
2022-11-28T05:59:49.202Z,2.69
2022-11-28T06:02:15.721Z,2.59
2022-11-28T06:04:42.401Z,2.45
2022-11-28T06:07:09.142Z,2.61
2022-11-28T06:09:38.003Z,2.51
2022-11-28T06:12:04.685Z,2.48
2022-11-28T06:14:31.605Z,2.40
2022-11-28T06:16:58.480Z,2.36
2022-11-28T06:19:25.904Z,2.43
2022-11-28T06:21:53.574Z,2.57
2022-11-28T06:24:20.159Z,2.42
2022-11-28T06:26:46.527Z,2.60
2022-11-28T06:29:12.963Z,2.65
2022-11-28T06:31:39.396Z,2.62
2022-11-28T06:34:05.927Z,2.59
2022-11-28T06:36:32.602Z,2.59
2022-11-28T06:38:59.067Z,2.68
2022-11-28T06:41:25.612Z,2.83
2022-11-28T06:43:52.338Z,2.65
2022-11-28T06:46:21.043Z,2.52
2022-11-28T06:48:49.238Z,2.51
2022-11-28T06:51:17.482Z,2.65
2022-11-28T06:53:44.646Z,2.59
2022-11-28T06:56:15.177Z,2.74
2022-11-28T06:58:42.938Z,2.59
2022-11-28T07:01:19.017Z,2.65
2022-11-28T07:03:46.406Z,2.71
2022-11-28T07:06:13.898Z,2.76
2022-11-28T07:08:40.952Z,2.72
2022-11-28T07:11:11.623Z,2.58
2022-11-28T07:13:38.923Z,2.58
2022-11-28T07:16:06.377Z,2.63
2022-11-28T07:18:32.929Z,2.67
2022-11-28T07:20:59.809Z,2.73
2022-11-28T07:23:26.321Z,2.65
2022-11-28T07:25:58.488Z,2.68
2022-11-28T07:28:24.893Z,2.76
2022-11-28T07:30:59.606Z,2.86
2022-11-28T07:33:26.803Z,3.02
2022-11-28T07:35:53.183Z,3.01
2022-11-28T07:38:19.465Z,3.06
2022-11-28T07:40:45.822Z,3.09
2022-11-28T07:43:12.312Z,3.11
2022-11-28T07:45:59.381Z,3.19
2022-11-28T07:48:26.447Z,3.19
2022-11-28T07:50:52.723Z,3.28
2022-11-28T07:53:19.439Z,3.30
2022-11-28T07:55:46.147Z,3.22
2022-11-28T07:58:12.485Z,3.12
2022-11-28T08:00:39.293Z,3.18
2022-11-28T08:03:06.131Z,3.15
2022-11-28T08:05:33.268Z,3.27
2022-11-28T08:07:59.988Z,3.35
2022-11-28T08:10:28.045Z,3.27
2022-11-28T08:12:54.488Z,3.43
2022-11-28T08:15:21.026Z,3.39
2022-11-28T08:17:47.791Z,3.39
2022-11-28T08:20:14.192Z,3.33
2022-11-28T08:22:40.931Z,3.20
2022-11-28T08:25:07.620Z,3.35
2022-11-28T08:27:34.817Z,3.39
2022-11-28T08:30:01.301Z,3.38
2022-11-28T08:32:31.017Z,3.41
2022-11-28T08:34:57.357Z,3.28
2022-11-28T08:37:24.012Z,3.35
2022-11-28T08:39:50.858Z,3.12
2022-11-28T08:42:17.353Z,3.07
2022-11-28T08:44:43.727Z,3.18
2022-11-28T08:47:10.324Z,3.38
2022-11-28T08:49:37.427Z,3.41
2022-11-28T08:52:04.898Z,3.44
2022-11-28T08:54:31.913Z,3.58
2022-11-28T08:56:59.179Z,3.70
2022-11-28T08:59:25.689Z,3.65
2022-11-28T09:01:53.505Z,3.89
2022-11-28T09:04:21.015Z,3.98
2022-11-28T09:06:47.590Z,3.97
2022-11-28T09:09:13.973Z,4.18
2022-11-28T09:11:40.666Z,4.40
2022-11-28T09:14:07.753Z,4.22
2022-11-28T09:16:34.401Z,4.39
2022-11-28T09:19:01.067Z,4.18
2022-11-28T09:21:27.574Z,4.30
2022-11-28T09:23:56.192Z,4.16
2022-11-28T09:26:25.350Z,4.26
2022-11-28T09:28:52.830Z,4.46
2022-11-28T09:31:20.257Z,4.22
2022-11-28T09:33:49.025Z,4.31
2022-11-28T09:36:18.821Z,4.04
2022-11-28T09:38:46.096Z,4.34
2022-11-28T09:41:49.520Z,4.30
2022-11-28T09:44:41.993Z,4.59
2022-11-28T09:47:31.194Z,4.33
2022-11-28T09:50:10.675Z,4.32
2022-11-28T09:53:02.617Z,4.42
2022-11-28T09:55:47.641Z,4.56
2022-11-28T09:58:37.261Z,4.46
2022-11-28T10:01:40.689Z,4.56
2022-11-28T10:04:19.382Z,4.53
2022-11-28T10:07:42.788Z,4.56
2022-11-28T10:10:54.134Z,4.61
2022-11-28T10:13:36.541Z,4.80
2022-11-28T10:16:24.635Z,4.57
2022-11-28T10:18:54.680Z,4.60
2022-11-28T10:21:28.338Z,4.97
2022-11-28T10:24:07.501Z,4.80
2022-11-28T10:26:38.501Z,4.96
2022-11-28T10:29:20.110Z,5.03
2022-11-28T10:31:50.239Z,5.22
2022-11-28T10:34:21.638Z,5.13
2022-11-28T10:37:23.484Z,5.15
2022-11-28T10:39:51.185Z,5.18
2022-11-28T10:42:26.398Z,5.39
2022-11-28T10:45:14.136Z,5.46
2022-11-28T10:48:37.581Z,5.25
2022-11-28T10:51:11.075Z,5.52
2022-11-28T10:53:50.112Z,5.44
2022-11-28T10:56:37.789Z,5.32
2022-11-28T10:59:22.565Z,5.28
2022-11-28T11:01:50.610Z,5.41
2022-11-28T11:04:23.001Z,5.35
2022-11-28T11:07:16.400Z,5.52
2022-11-28T11:09:46.120Z,5.42
2022-11-28T11:12:20.685Z,5.39
2022-11-28T11:14:47.512Z,5.26
2022-11-28T11:17:36.143Z,5.13
2022-11-28T11:20:25.364Z,5.30
2022-11-28T11:23:12.858Z,5.28
2022-11-28T11:25:48.599Z,5.47
2022-11-28T11:28:33.174Z,5.40
2022-11-28T11:31:02.308Z,5.49
2022-11-28T11:33:37.642Z,5.59
2022-11-28T11:36:18.878Z,5.67
2022-11-28T11:38:45.221Z,5.82
2022-11-28T11:41:29.653Z,5.74
2022-11-28T11:44:08.810Z,5.73
2022-11-28T11:46:50.270Z,5.72
2022-11-28T11:49:41.416Z,5.82
2022-11-28T11:52:25.427Z,6.04
2022-11-28T11:54:58.075Z,5.99
2022-11-28T11:57:33.607Z,5.90
2022-11-28T12:00:04.908Z,5.94
2022-11-28T12:02:38.053Z,5.83
2022-11-28T12:05:11.739Z,6.03
2022-11-28T12:07:59.722Z,5.66
2022-11-28T12:10:30.870Z,6.03
2022-11-28T12:12:57.651Z,5.94
2022-11-28T12:16:05.560Z,5.85
2022-11-28T12:18:50.458Z,5.95
2022-11-28T12:21:29.269Z,6.14
2022-11-28T12:24:09.911Z,6.08
2022-11-28T12:26:57.134Z,5.99
2022-11-28T12:29:38.833Z,5.59
2022-11-28T12:32:28.940Z,5.82
2022-11-28T12:34:58.062Z,5.86
2022-11-28T12:38:17.093Z,5.79
2022-11-28T12:41:08.823Z,5.80
2022-11-28T12:43:50.328Z,5.84
2022-11-28T12:46:35.008Z,5.56
2022-11-28T12:49:23.638Z,5.68
2022-11-28T12:52:23.461Z,5.85
2022-11-28T12:55:28.022Z,5.82
2022-11-28T12:58:10.690Z,5.85
2022-11-28T13:01:06.596Z,5.53
2022-11-28T13:03:51.858Z,5.73
2022-11-28T13:06:39.530Z,5.60
2022-11-28T13:09:15.531Z,5.77
2022-11-28T13:12:00.478Z,5.62
2022-11-28T13:14:35.097Z,5.67
2022-11-28T13:17:16.393Z,5.83
2022-11-28T13:20:25.470Z,5.66
2022-11-28T13:23:03.027Z,5.56
2022-11-28T13:25:44.975Z,5.53
2022-11-28T13:28:22.035Z,5.58
2022-11-28T13:30:53.418Z,5.39
2022-11-28T13:33:48.450Z,5.52
2022-11-28T13:39:40.336Z,5.58
2022-11-28T13:42:59.528Z,5.70
2022-11-28T13:45:35.824Z,5.76
2022-11-28T13:49:06.067Z,5.79
2022-11-28T13:51:31.053Z,5.64
2022-11-28T13:54:17.237Z,5.68
2022-11-28T13:56:46.490Z,5.45
2022-11-28T13:59:20.796Z,5.47
2022-11-28T14:01:53.628Z,5.43
2022-11-28T14:04:20.313Z,5.55
2022-11-28T14:06:49.857Z,5.54
2022-11-28T14:09:16.440Z,5.53
2022-11-28T14:12:07.768Z,5.48
2022-11-28T14:14:37.433Z,5.45
2022-11-28T14:17:48.283Z,5.47
2022-11-28T14:20:38.896Z,5.54
2022-11-28T14:23:29.632Z,5.43
2022-11-28T14:25:56.579Z,5.40
2022-11-28T14:28:26.823Z,5.49
2022-11-28T14:31:12.207Z,5.40
2022-11-28T14:33:42.676Z,5.37
2022-11-28T14:36:30.716Z,5.44
2022-11-28T14:39:34.149Z,5.43
2022-11-28T14:42:03.855Z,5.42
2022-11-28T14:44:53.082Z,5.22
2022-11-28T14:47:47.783Z,5.19
2022-11-28T14:50:14.764Z,5.35
2022-11-28T14:52:42.962Z,5.35
2022-11-28T14:55:12.647Z,5.32
2022-11-28T14:57:54.430Z,5.41
2022-11-28T15:00:47.640Z,5.33
2022-11-28T15:03:53.646Z,5.39
2022-11-28T15:06:23.577Z,5.30
2022-11-28T15:09:04.623Z,5.27
2022-11-28T15:11:58.890Z,5.33
2022-11-28T15:14:33.104Z,5.31
2022-11-28T15:17:12.209Z,5.24
2022-11-28T15:19:46.386Z,5.12
2022-11-28T15:22:33.129Z,5.19
2022-11-28T15:25:00.097Z,5.19
2022-11-28T15:27:27.857Z,5.18
2022-11-28T15:29:59.862Z,5.18
2022-11-28T15:32:29.424Z,5.04
2022-11-28T15:35:00.913Z,5.13
2022-11-28T15:37:30.705Z,5.11
2022-11-28T15:39:57.970Z,5.01
2022-11-28T15:42:31.190Z,4.98
2022-11-28T15:45:22.303Z,4.97
2022-11-28T15:47:50.477Z,4.92
2022-11-28T15:50:25.244Z,4.98
2022-11-28T15:52:54.664Z,4.93
2022-11-28T15:55:21.725Z,5.02
2022-11-28T15:57:48.178Z,4.98
2022-11-28T16:00:16.392Z,4.95
2022-11-28T16:02:44.156Z,4.96
2022-11-28T16:05:23.235Z,4.97
2022-11-28T16:07:51.742Z,4.97
2022-11-28T16:10:24.794Z,4.98
2022-11-28T16:12:59.708Z,4.95
2022-11-28T16:15:27.341Z,4.89
2022-11-28T16:17:55.685Z,4.91
2022-11-28T16:20:26.708Z,4.90
2022-11-28T16:22:59.496Z,4.84
2022-11-28T16:25:27.367Z,4.86
2022-11-28T16:27:54.289Z,4.81
2022-11-28T16:30:43.490Z,4.77
2022-11-28T16:33:39.415Z,4.78
2022-11-28T16:36:12.119Z,4.77
2022-11-28T16:38:39.134Z,4.73
2022-11-28T16:41:05.802Z,4.77
2022-11-28T16:43:40.503Z,4.74
2022-11-28T16:46:18.507Z,4.74
2022-11-28T16:48:53.725Z,4.71
2022-11-28T16:51:26.253Z,4.67
2022-11-28T16:53:55.670Z,4.63
2022-11-28T16:56:29.305Z,4.63
2022-11-28T16:59:11.157Z,4.64
2022-11-28T17:01:39.126Z,4.63
2022-11-28T17:04:05.824Z,4.54
2022-11-28T17:06:36.836Z,4.56
2022-11-28T17:09:09.227Z,4.63
2022-11-28T17:11:38.055Z,4.56
2022-11-28T17:14:10.135Z,4.66
2022-11-28T17:16:41.503Z,4.54
2022-11-28T17:19:08.453Z,4.56
2022-11-28T17:21:39.103Z,4.60
2022-11-28T17:24:13.502Z,4.55
2022-11-28T17:26:39.965Z,4.52
2022-11-28T17:29:12.575Z,4.54
2022-11-28T17:31:42.085Z,4.56
2022-11-28T17:34:25.016Z,4.42
2022-11-28T17:36:52.005Z,4.38
2022-11-28T17:39:20.461Z,4.36
2022-11-28T17:41:47.479Z,4.41
2022-11-28T17:44:28.720Z,4.41
2022-11-28T17:46:56.518Z,4.41
2022-11-28T17:49:23.650Z,4.47
2022-11-28T17:51:51.047Z,4.49
2022-11-28T17:54:19.426Z,4.44
2022-11-28T17:56:47.761Z,4.46
2022-11-28T17:59:16.839Z,4.41
2022-11-28T18:01:44.164Z,4.45
2022-11-28T18:04:11.152Z,4.42
2022-11-28T18:06:38.080Z,4.48
2022-11-28T18:09:11.714Z,4.47
2022-11-28T18:11:39.230Z,4.41
2022-11-28T18:14:05.754Z,4.40
2022-11-28T18:16:32.539Z,4.45
2022-11-28T18:18:59.077Z,4.48
2022-11-28T18:21:26.694Z,4.42
2022-11-28T18:23:53.653Z,4.44
2022-11-28T18:26:24.011Z,4.48
2022-11-28T18:28:50.879Z,4.49
2022-11-28T18:31:18.547Z,4.52
2022-11-28T18:33:45.141Z,4.53
2022-11-28T18:36:17.117Z,4.49
2022-11-28T18:38:46.411Z,4.53
2022-11-28T18:41:15.465Z,4.49
2022-11-28T18:43:42.835Z,4.40
2022-11-28T18:46:15.291Z,4.44
2022-11-28T18:48:44.641Z,4.34
2022-11-28T18:51:12.186Z,4.40
2022-11-28T18:53:39.349Z,4.35
2022-11-28T18:56:06.392Z,4.38
2022-11-28T18:58:38.472Z,4.36
2022-11-28T19:01:20.010Z,4.41
2022-11-28T19:03:51.890Z,4.33
2022-11-28T19:06:19.525Z,4.30
2022-11-28T19:08:46.639Z,4.26
2022-11-28T19:11:15.430Z,4.19
2022-11-28T19:13:43.842Z,4.19
2022-11-28T19:16:13.115Z,4.19
2022-11-28T19:18:40.192Z,4.13
2022-11-28T19:21:11.866Z,4.11
2022-11-28T19:23:38.886Z,4.19
2022-11-28T19:26:08.048Z,4.07
2022-11-28T19:28:35.321Z,4.02
2022-11-28T19:31:17.293Z,4.05
2022-11-28T19:33:44.004Z,3.97
2022-11-28T19:36:12.303Z,3.92
2022-11-28T19:38:39.184Z,4.01
2022-11-28T19:41:10.434Z,4.05
2022-11-28T19:43:36.988Z,4.01
2022-11-28T19:46:03.643Z,4.03
2022-11-28T19:48:31.742Z,3.92
2022-11-28T19:51:01.690Z,3.91
2022-11-28T19:53:29.582Z,3.98
2022-11-28T19:55:56.488Z,3.91
2022-11-28T19:58:23.367Z,3.90
2022-11-28T20:00:49.953Z,3.91
2022-11-28T20:03:16.507Z,3.96
2022-11-28T20:05:43.002Z,3.94
2022-11-28T20:08:09.644Z,3.96
2022-11-28T20:10:38.203Z,4.04
2022-11-28T20:13:05.769Z,3.98
2022-11-28T20:15:36.723Z,3.96
2022-11-28T20:18:03.604Z,3.96
2022-11-28T20:20:30.131Z,3.95
2022-11-28T20:22:57.675Z,4.02
2022-11-28T20:25:24.011Z,4.03
2022-11-28T20:27:50.498Z,4.00
2022-11-28T20:30:17.428Z,4.04
2022-11-28T20:32:44.289Z,4.15
2022-11-28T20:35:10.834Z,4.07
2022-11-28T20:37:39.112Z,4.14
2022-11-28T20:40:06.818Z,4.11
2022-11-28T20:42:39.451Z,4.10
2022-11-28T20:45:06.985Z,4.11
2022-11-28T20:47:34.629Z,4.11
2022-11-28T20:50:01.147Z,4.09
2022-11-28T20:52:27.658Z,4.08
2022-11-28T20:54:54.240Z,4.14
2022-11-28T20:57:22.204Z,4.18
2022-11-28T20:59:49.119Z,4.22
2022-11-28T21:02:15.635Z,4.12
2022-11-28T21:04:42.072Z,4.18
2022-11-28T21:07:08.783Z,4.21
2022-11-28T21:09:35.122Z,4.23
2022-11-28T21:12:01.459Z,4.31
2022-11-28T21:14:28.740Z,4.34
2022-11-28T21:16:56.572Z,4.39
2022-11-28T21:19:23.205Z,4.42
2022-11-28T21:21:49.551Z,4.43
2022-11-28T21:24:15.926Z,4.49
2022-11-28T21:26:49.441Z,4.49
2022-11-28T21:29:19.465Z,4.49
2022-11-28T21:31:46.532Z,4.44
2022-11-28T21:34:14.766Z,4.48
2022-11-28T21:36:41.435Z,4.49
2022-11-28T21:39:09.325Z,4.47
2022-11-28T21:41:35.833Z,4.37
2022-11-28T21:44:02.402Z,4.40
2022-11-28T21:46:30.520Z,4.48
2022-11-28T21:48:58.340Z,4.40
2022-11-28T21:51:25.895Z,4.51
2022-11-28T21:53:54.081Z,4.46
2022-11-28T21:56:21.834Z,4.41
2022-11-28T21:58:48.310Z,4.38
2022-11-28T22:01:15.461Z,4.31
2022-11-28T22:03:43.881Z,4.33
2022-11-28T22:06:16.662Z,4.30
2022-11-28T22:08:43.836Z,4.31
2022-11-28T22:11:13.281Z,4.28
2022-11-28T22:13:50.905Z,4.25
2022-11-28T22:16:29.198Z,4.26
2022-11-28T22:18:58.753Z,4.23
2022-11-28T22:24:12.411Z,4.19
2022-11-28T22:26:38.931Z,4.27
2022-11-28T22:29:05.439Z,4.11
2022-11-28T22:31:32.294Z,4.18
2022-11-28T22:33:59.008Z,4.12
2022-11-28T22:36:25.571Z,4.07
2022-11-28T22:38:57.158Z,4.04
2022-11-28T22:41:28.971Z,4.02
2022-11-28T22:43:59.563Z,4.01
2022-11-28T22:46:26.312Z,3.93
2022-11-28T22:48:52.928Z,3.97
2022-11-28T22:51:21.933Z,4.02
2022-11-28T22:53:55.950Z,4.03
2022-11-28T22:56:22.802Z,4.00
2022-11-28T22:58:49.388Z,3.99
2022-11-28T23:01:27.711Z,3.95
2022-11-28T23:03:55.084Z,4.04
2022-11-28T23:06:24.492Z,4.04
2022-11-28T23:08:51.625Z,4.09
2022-11-28T23:11:20.648Z,4.11
2022-11-28T23:13:48.201Z,4.02
2022-11-28T23:16:16.566Z,3.96
2022-11-28T23:18:45.506Z,3.93
2022-11-28T23:21:12.873Z,3.96
2022-11-28T23:23:40.091Z,3.93
2022-11-28T23:26:09.169Z,4.02
2022-11-28T23:28:37.060Z,4.04
2022-11-28T23:31:10.510Z,4.03
2022-11-28T23:33:37.926Z,4.00
2022-11-28T23:36:25.918Z,3.96
2022-11-28T23:38:55.655Z,4.01
2022-11-28T23:41:22.356Z,4.07
2022-11-28T23:43:49.067Z,4.12
2022-11-28T23:49:01.031Z,4.09
2022-11-28T23:51:27.617Z,4.13
2022-11-28T23:53:54.291Z,4.17
2022-11-28T23:56:23.708Z,4.21
2022-11-28T23:58:51.521Z,4.14
